KMOX/MOX METAR and TAF weather

Enter ICAO airport designator
Station Type Date Time Source
KMOX METAR 2019/10/21 02:55 UTC NOAA

KMOX 210255Z AUTO 11014KT 10SM BKN100 13/02 A2964 RMK AO2


Station Type Date Time Source
KMOX Decoded METAR 2019/10/21 02:55 UTC NOAA

Morris, Morris Municipal Airport, MN, United States (KMOX) 45-34N 095-58W
Oct 20, 2019 - 10:55 PM EDT / 2019.10.21 0255 UTC
Wind: from the ESE (110 degrees) at 16 MPH (14 KT):0
Visibility: 10 mile(s):0
Sky conditions: mostly cloudy
Temperature: 55 F (13 C)
Dew Point: 35 F (2 C)
Relative Humidity: 47%
Pressure (altimeter): 29.64 in. Hg (1003 hPa)
ob: KMOX 210255Z AUTO 11014KT 10SM BKN100 13/02 A2964 RMK AO2
cycle: 3

Station Type Date Time Source
KMOX TAF UTC NOAA

Error!

Example: see airport list